Time;durP1;ratioP1;P1;durP2;ratioP2;P2;SDS_P1;SDS_P2;PMS_P1;PMS_P2;Temp;Humidity;BMP_temperature;BMP_pressure;BME280_temperature;BME280_humidity;BME280_pressure;Samples;Min_cycle;Max_cycle;Signal;HPM_P1;HPM_P2
2023/05/03 00:02:26;;;;;;;5.72;3.17;;;;;;;15.29;100.00;101132.56;4963158;28;20051;-91
2023/05/03 00:04:54;;;;;;;3.17;2.88;;;;;;;15.25;100.00;101137.88;4959539;29;20389;-91
2023/05/03 00:07:22;;;;;;;5.32;2.88;;;;;;;15.29;100.00;101141.66;4958929;29;20058;-92
2023/05/03 00:09:50;;;;;;;4.32;2.95;;;;;;;15.36;100.00;101138.56;4958361;28;20051;-92
2023/05/03 00:12:18;;;;;;;4.30;3.17;;;;;;;15.28;100.00;101142.78;4958563;28;20516;-91
2023/05/03 00:14:45;;;;;;;3.70;2.90;;;;;;;15.20;100.00;101145.41;4958506;28;20059;-92
2023/05/03 00:17:13;;;;;;;6.43;3.13;;;;;;;15.12;100.00;101138.63;4958671;29;20055;-92
2023/05/03 00:19:41;;;;;;;4.93;3.45;;;;;;;15.20;100.00;101142.66;4965374;28;20518;-88
2023/05/03 00:22:09;;;;;;;4.10;3.15;;;;;;;15.23;100.00;101134.59;4967072;29;20047;-90
2023/05/03 00:24:38;;;;;;;4.18;3.50;;;;;;;15.18;100.00;101131.91;4958814;28;20047;-90
2023/05/03 00:27:05;;;;;;;4.68;3.90;;;;;;;15.16;100.00;101129.44;4957794;28;20051;-90
2023/05/03 00:29:33;;;;;;;4.88;3.95;;;;;;;15.17;100.00;101133.03;4957085;29;20059;-90
2023/05/03 00:32:01;;;;;;;5.85;4.18;;;;;;;15.20;100.00;101128.88;4958174;29;20050;-91
2023/05/03 00:34:29;;;;;;;6.15;3.92;;;;;;;15.15;100.00;101130.56;4957463;28;20447;-91
2023/05/03 00:36:57;;;;;;;6.10;4.15;;;;;;;15.11;100.00;101132.28;4955702;29;20054;-89
2023/05/03 00:39:30;;;;;;;6.03;4.80;;;;;;;15.12;100.00;101133.09;4956591;29;20046;-89
2023/05/03 00:41:58;;;;;;;6.65;4.20;;;;;;;15.11;100.00;101143.28;4956589;28;20055;-88
2023/05/03 00:44:26;;;;;;;5.30;4.35;;;;;;;15.22;100.00;101135.72;4955154;29;20405;-87
2023/05/03 00:46:55;;;;;;;6.38;4.50;;;;;;;15.18;100.00;101135.50;4955692;29;20066;-87
2023/05/03 00:49:24;;;;;;;4.88;4.13;;;;;;;15.25;100.00;101135.09;4956400;28;20059;-86
2023/05/03 00:51:53;;;;;;;6.20;4.82;;;;;;;15.20;100.00;101137.94;4956773;28;20056;-86
2023/05/03 00:54:22;;;;;;;7.00;4.55;;;;;;;15.10;100.00;101138.09;4955619;29;20043;-85
2023/05/03 00:56:50;;;;;;;8.38;4.68;;;;;;;15.21;100.00;101147.03;4955279;29;20050;-85
2023/05/03 00:59:19;;;;;;;6.97;4.72;;;;;;;15.12;100.00;101139.44;4957256;29;20039;-85
2023/05/03 01:01:49;;;;;;;6.03;4.70;;;;;;;15.20;100.00;101137.13;4957301;29;20066;-85
2023/05/03 01:04:22;;;;;;;5.70;4.10;;;;;;;15.20;100.00;101135.19;4957253;29;20051;-85
2023/05/03 01:06:58;;;;;;;6.47;4.75;;;;;;;15.21;100.00;101125.81;4957034;29;20062;-85
2023/05/03 01:09:49;;;;;;;5.93;4.32;;;;;;;15.16;100.00;101125.88;4957842;29;20481;-86
2023/05/03 01:12:48;;;;;;;6.00;4.70;;;;;;;15.12;100.00;101133.09;4955579;28;20509;-86
2023/05/03 01:15:54;;;;;;;6.05;4.63;;;;;;;14.88;100.00;101134.81;4954778;29;20736;-86
2023/05/03 01:18:28;;;;;;;6.78;4.80;;;;;;;14.89;100.00;101130.09;4956590;29;20503;-86
2023/05/03 01:20:58;;;;;;;7.88;5.15;;;;;;;14.93;100.00;101131.16;4939778;29;20047;-87
2023/05/03 01:23:42;;;;;;;6.45;4.60;;;;;;;14.90;100.00;101138.06;4939364;29;20047;-86
2023/05/03 01:26:19;;;;;;;6.50;4.82;;;;;;;14.97;100.00;101140.47;4939557;29;20380;-87
2023/05/03 01:28:47;;;;;;;5.85;4.88;;;;;;;15.05;100.00;101139.81;4939521;29;20055;-86
2023/05/03 01:31:34;;;;;;;7.47;5.57;;;;;;;14.88;100.00;101129.28;4939445;29;20420;-87
2023/05/03 01:34:11;;;;;;;5.88;4.72;;;;;;;14.83;100.00;101128.53;4923829;29;20073;-87
2023/05/03 01:36:43;;;;;;;9.40;5.78;;;;;;;14.73;100.00;101132.19;4954925;29;20047;-86
2023/05/03 01:39:18;;;;;;;6.38;4.78;;;;;;;14.63;100.00;101138.66;4954899;29;20039;-87
2023/05/03 01:41:50;;;;;;;9.60;5.53;;;;;;;14.67;100.00;101133.38;4954512;29;20047;-87
2023/05/03 01:44:21;;;;;;;7.97;5.65;;;;;;;14.68;100.00;101138.59;4956102;29;20052;-88
2023/05/03 01:46:49;;;;;;;6.97;5.35;;;;;;;14.84;100.00;101124.66;4955814;28;20081;-87
2023/05/03 01:49:17;;;;;;;7.57;5.93;;;;;;;14.87;100.00;101135.09;4955941;29;20046;-88
2023/05/03 01:51:44;;;;;;;8.20;5.80;;;;;;;14.76;100.00;101124.19;4955635;29;20055;-88
2023/05/03 01:54:12;;;;;;;8.32;6.20;;;;;;;14.87;100.00;101132.34;4954421;29;20055;-86
2023/05/03 01:56:40;;;;;;;9.93;6.20;;;;;;;14.89;100.00;101130.94;4955629;29;20062;-87
2023/05/03 01:59:08;;;;;;;8.50;6.30;;;;;;;14.96;100.00;101136.06;4954587;29;20054;-88
2023/05/03 02:01:36;;;;;;;8.68;6.13;;;;;;;14.77;100.00;101139.59;4954812;29;20055;-89
2023/05/03 02:04:04;;;;;;;10.15;5.95;;;;;;;14.82;100.00;101138.75;4938820;28;20725;-88
2023/05/03 02:06:32;;;;;;;11.95;6.90;;;;;;;14.84;100.00;101138.44;4954390;29;20054;-88
2023/05/03 02:08:59;;;;;;;9.52;6.95;;;;;;;14.70;100.00;101133.59;4954161;29;20040;-88
2023/05/03 02:11:27;;;;;;;9.88;6.25;;;;;;;14.72;100.00;101142.38;4955286;29;20051;-89
2023/05/03 02:13:55;;;;;;;10.40;6.70;;;;;;;14.75;100.00;101147.34;4954384;29;20039;-88
2023/05/03 02:16:23;;;;;;;9.00;6.60;;;;;;;14.62;100.00;101148.84;4954335;29;20050;-88
2023/05/03 02:18:52;;;;;;;13.30;7.10;;;;;;;14.76;100.00;101150.94;4954105;29;20046;-88
2023/05/03 02:21:20;;;;;;;11.05;7.70;;;;;;;14.70;100.00;101152.91;4954343;29;20489;-88
2023/05/03 02:23:48;;;;;;;9.10;6.88;;;;;;;14.69;100.00;101158.69;4955239;28;20055;-88
2023/05/03 02:26:16;;;;;;;10.50;6.65;;;;;;;14.62;100.00;101148.03;4954895;29;20402;-87
2023/05/03 02:28:43;;;;;;;11.18;7.55;;;;;;;14.61;100.00;101160.97;4953941;29;20043;-87
2023/05/03 02:31:12;;;;;;;9.75;6.95;;;;;;;14.57;100.00;101146.16;4953825;29;20035;-88
2023/05/03 02:33:42;;;;;;;12.50;6.95;;;;;;;14.58;100.00;101152.50;4938536;29;20058;-87
2023/05/03 02:36:10;;;;;;;11.73;7.35;;;;;;;14.60;100.00;101158.50;4953606;29;20039;-87
2023/05/03 02:38:38;;;;;;;10.75;7.13;;;;;;;14.57;100.00;101159.91;4955009;29;20047;-87
2023/05/03 02:41:06;;;;;;;9.13;7.07;;;;;;;14.66;100.00;101146.31;4953937;29;20046;-86
2023/05/03 02:43:34;;;;;;;11.35;7.00;;;;;;;14.58;100.00;101160.75;4954869;29;20520;-86
2023/05/03 02:46:02;;;;;;;9.57;6.95;;;;;;;14.63;100.00;101150.47;4953574;29;20047;-86
2023/05/03 02:48:30;;;;;;;11.23;7.38;;;;;;;14.62;100.00;101150.78;4953412;29;20058;-85
2023/05/03 02:50:58;;;;;;;11.23;7.45;;;;;;;14.56;100.00;101149.22;4953398;29;20505;-84
2023/05/03 02:53:26;;;;;;;11.50;6.72;;;;;;;14.51;100.00;101161.94;4954567;29;20051;-85
2023/05/03 02:55:58;;;;;;;10.90;7.28;;;;;;;14.54;100.00;101154.19;4953352;29;20513;-85
2023/05/03 02:58:26;;;;;;;10.90;7.47;;;;;;;14.57;100.00;101150.84;4937513;29;20062;-85
2023/05/03 03:00:54;;;;;;;9.98;6.93;;;;;;;14.54;100.00;101156.94;4954666;29;20043;-87
2023/05/03 03:03:22;;;;;;;9.38;7.30;;;;;;;14.62;100.00;101159.06;4953402;29;20047;-86
2023/05/03 03:05:50;;;;;;;7.93;6.38;;;;;;;14.62;100.00;101159.06;4953459;29;20055;-86
2023/05/03 03:08:18;;;;;;;10.07;6.95;;;;;;;14.67;100.00;101159.00;4953331;29;20043;-86
2023/05/03 03:10:47;;;;;;;9.68;7.03;;;;;;;14.55;100.00;101158.56;4953267;29;20046;-86
2023/05/03 03:13:16;;;;;;;9.20;6.63;;;;;;;14.50;100.00;101170.47;4953290;29;20051;-85
2023/05/03 03:15:44;;;;;;;8.02;6.22;;;;;;;14.50;100.00;101174.06;4953958;29;20060;-85
2023/05/03 03:18:12;;;;;;;7.90;6.60;;;;;;;14.56;100.00;101172.06;4953112;29;20047;-84
2023/05/03 03:20:42;;;;;;;8.25;6.32;;;;;;;14.52;100.00;101166.31;4954350;28;20044;-85
2023/05/03 03:23:10;;;;;;;7.82;6.22;;;;;;;14.45;100.00;101165.84;4969072;28;20051;-85
2023/05/03 03:25:38;;;;;;;8.30;6.55;;;;;;;14.51;100.00;101172.09;4952975;29;20047;-84
2023/05/03 03:28:06;;;;;;;8.50;6.20;;;;;;;14.46;100.00;101173.00;4952726;28;20074;-84
2023/05/03 03:30:35;;;;;;;7.85;5.90;;;;;;;14.41;100.00;101180.50;4952845;29;20054;-84
2023/05/03 03:33:16;;;;;;;8.80;6.20;;;;;;;14.45;100.00;101178.78;4952930;29;20047;-85
2023/05/03 03:35:44;;;;;;;8.15;5.65;;;;;;;14.29;100.00;101167.94;4952416;28;20044;-85
2023/05/03 03:38:12;;;;;;;8.60;5.75;;;;;;;14.18;100.00;101177.41;4953413;29;20047;-84
2023/05/03 03:40:48;;;;;;;9.55;6.22;;;;;;;14.27;100.00;101183.91;4952760;29;20152;-85
2023/05/03 03:43:16;;;;;;;7.03;5.63;;;;;;;14.40;100.00;101176.91;4953856;29;20055;-85
2023/05/03 03:45:44;;;;;;;8.70;6.25;;;;;;;14.34;100.00;101187.16;4968689;28;20050;-85
2023/05/03 03:48:14;;;;;;;9.70;6.57;;;;;;;14.41;100.00;101181.31;4951483;29;20055;-85
2023/05/03 03:50:42;;;;;;;7.90;6.18;;;;;;;14.30;100.00;101177.00;4934883;29;20048;-86
2023/05/03 03:53:12;;;;;;;10.50;6.05;;;;;;;14.21;100.00;101177.66;4948087;29;20066;-85
2023/05/03 03:55:40;;;;;;;7.55;6.15;;;;;;;14.33;100.00;101179.19;4952315;29;20111;-84
2023/05/03 03:58:08;;;;;;;10.23;7.30;;;;;;;14.32;100.00;101185.81;4952247;29;20042;-85
2023/05/03 04:00:37;;;;;;;10.32;7.28;;;;;;;14.36;100.00;101190.44;4936310;29;20074;-85
2023/05/03 04:03:11;;;;;;;10.13;6.63;;;;;;;14.28;100.00;101193.84;4952542;29;20043;-85
2023/05/03 04:05:39;;;;;;;9.80;6.72;;;;;;;14.28;100.00;101196.59;4936879;29;20058;-85
2023/05/03 04:08:08;;;;;;;10.13;6.60;;;;;;;14.26;100.00;101195.25;4952435;29;20043;-85
2023/05/03 04:10:37;;;;;;;8.20;6.20;;;;;;;14.35;100.00;101193.47;4952474;29;20060;-84
2023/05/03 04:13:05;;;;;;;9.10;6.90;;;;;;;14.44;100.00;101201.94;4968591;28;20047;-85
2023/05/03 04:15:34;;;;;;;10.73;7.05;;;;;;;14.48;100.00;101197.50;4951889;29;20051;-85
2023/05/03 04:18:04;;;;;;;10.93;7.50;;;;;;;14.43;100.00;101203.88;4941221;29;20497;-85
2023/05/03 04:20:35;;;;;;;12.38;7.70;;;;;;;14.46;100.00;101203.28;4951634;29;20058;-85
2023/05/03 04:23:05;;;;;;;9.15;7.05;;;;;;;14.46;100.00;101208.78;4951371;29;20062;-84
2023/05/03 04:25:33;;;;;;;10.98;7.22;;;;;;;14.49;100.00;101196.38;4952740;29;20043;-84
2023/05/03 04:28:07;;;;;;;;;;;;;;;14.48;100.00;101206.56;4952437;29;20051;-84
2023/05/03 04:30:39;;;;;;;8.77;6.55;;;;;;;14.42;100.00;101204.16;4935902;29;19923;-84
2023/05/03 04:33:08;;;;;;;9.07;6.60;;;;;;;14.46;100.00;101216.22;4952274;29;20047;-84
2023/05/03 04:35:36;;;;;;;11.30;7.57;;;;;;;14.47;100.00;101215.13;4952085;29;20044;-84
2023/05/03 04:38:09;;;;;;;10.95;7.57;;;;;;;14.42;100.00;101220.69;4968580;28;20055;-84
2023/05/03 04:40:36;;;;;;;9.50;7.38;;;;;;;14.50;100.00;101223.63;4951721;29;20043;-84
2023/05/03 04:43:07;;;;;;;8.90;6.28;;;;;;;14.47;100.00;101223.38;4951670;29;20050;-83
2023/05/03 04:45:39;;;;;;;10.50;7.05;;;;;;;14.50;100.00;101222.78;4952086;29;20040;-83
2023/05/03 04:48:11;;;;;;;11.68;6.90;;;;;;;14.52;100.00;101226.91;4954297;28;20478;-81
2023/05/03 04:50:40;;;;;;;9.77;6.75;;;;;;;14.56;100.00;101220.81;4954924;29;20047;-81
2023/05/03 04:53:10;;;;;;;11.23;7.93;;;;;;;14.48;100.00;101225.03;4955225;29;20413;-82
2023/05/03 04:55:41;;;;;;;10.55;6.95;;;;;;;14.49;100.00;101232.16;4971499;28;20047;-81
2023/05/03 04:58:10;;;;;;;10.57;7.45;;;;;;;14.49;100.00;101224.75;4939614;29;20055;-81
2023/05/03 05:00:41;;;;;;;10.13;7.15;;;;;;;14.61;100.00;101229.00;4954582;29;20063;-83
2023/05/03 05:03:15;;;;;;;10.85;6.97;;;;;;;14.66;100.00;101231.72;4955451;29;20048;-83
2023/05/03 05:05:44;;;;;;;10.40;7.15;;;;;;;14.66;100.00;101239.97;4955779;29;20426;-83
2023/05/03 05:08:12;;;;;;;8.43;6.70;;;;;;;14.76;100.00;101245.41;4971474;28;20044;-85
2023/05/03 05:10:47;;;;;;;8.23;6.65;;;;;;;14.88;100.00;101246.94;4955635;29;20054;-82
2023/05/03 05:13:19;;;;;;;10.82;7.53;;;;;;;14.93;100.00;101248.81;4955413;29;20459;-82
2023/05/03 05:15:47;;;;;;;11.82;6.78;;;;;;;14.93;100.00;101246.91;4954644;29;20047;-82
2023/05/03 05:18:16;;;;;;;8.32;6.60;;;;;;;14.93;100.00;101241.38;4945562;29;20509;-82
2023/05/03 05:20:45;;;;;;;9.00;6.70;;;;;;;14.92;100.00;101248.00;4919172;29;20407;-82
2023/05/03 05:23:13;;;;;;;9.60;7.40;;;;;;;15.04;100.00;101251.16;4937127;29;20069;-82
2023/05/03 05:25:44;;;;;;;9.40;6.90;;;;;;;15.11;100.00;101238.97;4954061;29;20051;-82
2023/05/03 05:28:13;;;;;;;12.45;7.70;;;;;;;15.21;100.00;101236.09;4956116;29;20055;-82
2023/05/03 05:30:41;;;;;;;9.55;6.97;;;;;;;15.25;100.00;101239.88;4954978;29;20498;-82
2023/05/03 05:33:09;;;;;;;9.88;7.35;;;;;;;15.20;100.00;101244.66;4971077;28;20059;-82
2023/05/03 05:35:37;;;;;;;11.45;7.50;;;;;;;15.30;100.00;101250.03;4970292;28;20035;-82
2023/05/03 05:38:06;;;;;;;10.63;7.25;;;;;;;15.37;100.00;101244.16;4956288;29;20043;-81
2023/05/03 05:40:35;;;;;;;9.93;7.13;;;;;;;15.40;100.00;101243.56;4969745;28;20047;-82
2023/05/03 05:43:03;;;;;;;9.45;7.13;;;;;;;15.59;100.00;101254.59;4947430;29;20055;-73
2023/05/03 05:45:35;;;;;;;9.95;7.10;;;;;;;15.80;100.00;101252.34;4954576;29;20052;-74
2023/05/03 05:48:04;;;;;;;10.35;6.82;;;;;;;16.08;100.00;101263.56;4954446;29;20055;-74
2023/05/03 05:50:33;;;;;;;8.70;6.72;;;;;;;16.11;100.00;101262.97;4954753;29;20044;-74
2023/05/03 05:53:07;;;;;;;9.48;6.68;;;;;;;16.13;100.00;101248.84;4954882;29;20047;-74
2023/05/03 05:55:39;;;;;;;9.45;6.57;;;;;;;16.20;100.00;101259.50;4954519;29;20058;-73
2023/05/03 05:58:08;;;;;;;9.32;6.78;;;;;;;16.24;100.00;101255.84;4954553;29;20055;-74
2023/05/03 06:00:42;;;;;;;10.00;6.97;;;;;;;16.30;100.00;101255.75;4953760;28;20483;-74
2023/05/03 06:03:11;;;;;;;9.63;6.38;;;;;;;16.34;100.00;101257.63;4954450;29;20047;-74
2023/05/03 06:05:39;;;;;;;11.07;6.88;;;;;;;16.25;100.00;101253.91;4954428;29;20048;-74
2023/05/03 06:08:09;;;;;;;8.52;6.57;;;;;;;16.37;100.00;101261.69;4954394;29;20043;-74
2023/05/03 06:10:38;;;;;;;9.10;6.95;;;;;;;16.24;100.00;101266.06;4954448;29;20457;-74
2023/05/03 06:13:06;;;;;;;8.40;6.20;;;;;;;16.47;100.00;101264.28;4954379;29;20040;-74
2023/05/03 06:15:34;;;;;;;9.82;5.88;;;;;;;16.55;100.00;101265.53;4953905;29;20044;-73
2023/05/03 06:18:03;;;;;;;11.20;7.30;;;;;;;16.53;100.00;101267.78;4954277;29;20044;-74
2023/05/03 06:20:31;;;;;;;9.75;6.68;;;;;;;16.48;100.00;101265.13;4954129;29;20062;-74
2023/05/03 06:23:00;;;;;;;10.63;7.07;;;;;;;16.55;100.00;101265.53;4954125;29;20469;-74
2023/05/03 06:25:28;;;;;;;10.82;6.38;;;;;;;16.50;100.00;101254.56;4953914;29;20043;-74
2023/05/03 06:27:56;;;;;;;10.68;6.63;;;;;;;16.66;100.00;101268.94;4938272;29;20054;-74
2023/05/03 06:30:28;;;;;;;10.73;7.65;;;;;;;16.69;100.00;101271.09;4953997;29;20118;-74
2023/05/03 06:33:01;;;;;;;8.67;6.67;;;;;;;16.72;100.00;101275.19;4953988;29;20070;-74
2023/05/03 06:35:31;;;;;;;9.55;6.65;;;;;;;16.73;100.00;101271.31;4953699;29;20685;-74
2023/05/03 06:37:59;;;;;;;8.73;6.55;;;;;;;16.73;100.00;101277.66;4954999;29;20495;-74
2023/05/03 06:40:26;;;;;;;12.40;7.50;;;;;;;16.66;100.00;101272.53;4953745;29;20400;-74
2023/05/03 06:42:54;;;;;;;9.30;6.88;;;;;;;16.85;100.00;101271.63;4969607;28;20043;-74
2023/05/03 06:45:35;;;;;;;11.38;7.18;;;;;;;16.86;100.00;101281.53;4953657;29;20054;-74
2023/05/03 06:48:03;;;;;;;9.48;6.80;;;;;;;16.89;100.00;101286.47;4953524;29;20039;-74
2023/05/03 06:50:31;;;;;;;9.90;7.20;;;;;;;16.96;100.00;101285.25;4937883;29;20051;-74
2023/05/03 06:52:59;;;;;;;9.77;6.88;;;;;;;17.06;99.55;101279.56;4953551;29;20043;-74
2023/05/03 06:55:27;;;;;;;11.48;7.53;;;;;;;17.08;99.04;101282.81;4954547;29;20494;-75
2023/05/03 06:57:55;;;;;;;10.10;6.85;;;;;;;17.10;96.98;101277.78;4954716;29;20047;-75
2023/05/03 07:00:24;;;;;;;9.38;7.15;;;;;;;17.18;97.16;101287.31;4954617;29;20047;-74
2023/05/03 07:02:52;;;;;;;8.70;6.45;;;;;;;16.96;97.79;101276.97;4954644;29;20047;-74
2023/05/03 07:05:21;;;;;;;7.47;5.78;;;;;;;17.14;97.76;101281.59;4954375;29;20051;-74
2023/05/03 07:07:49;;;;;;;10.00;7.10;;;;;;;17.19;99.17;101277.91;4954492;29;20047;-75
2023/05/03 07:10:16;;;;;;;10.77;6.50;;;;;;;17.24;99.25;101268.66;4954329;28;20402;-74
2023/05/03 07:12:44;;;;;;;10.30;7.13;;;;;;;17.34;98.19;101276.75;4954426;29;20050;-74
2023/05/03 07:15:13;;;;;;;9.98;6.30;;;;;;;17.30;98.56;101271.03;4954232;29;20055;-74
2023/05/03 07:17:41;;;;;;;11.45;7.00;;;;;;;17.37;98.06;101284.44;4954191;29;20047;-75
2023/05/03 07:20:09;;;;;;;11.48;7.45;;;;;;;17.44;96.96;101290.38;4954263;29;20055;-75
2023/05/03 07:22:37;;;;;;;9.98;6.70;;;;;;;17.43;97.31;101290.69;4968951;28;20039;-75
2023/05/03 07:25:06;;;;;;;9.90;7.63;;;;;;;17.42;96.94;101295.41;4954163;29;20494;-75
2023/05/03 07:27:34;;;;;;;10.48;7.20;;;;;;;17.67;95.04;101287.69;4952989;29;20066;-75
2023/05/03 07:30:03;;;;;;;11.80;7.22;;;;;;;17.80;94.84;101274.91;4954230;29;20054;-75
2023/05/03 07:32:32;;;;;;;12.52;7.55;;;;;;;18.00;93.15;101273.63;4954180;29;20051;-75
2023/05/03 07:35:00;;;;;;;12.63;8.25;;;;;;;17.77;94.15;101281.09;4953789;29;20066;-75
2023/05/03 07:37:28;;;;;;;12.32;7.50;;;;;;;17.81;95.65;101278.50;4953868;29;20043;-75
2023/05/03 07:39:56;;;;;;;11.63;7.38;;;;;;;17.80;94.97;101274.91;4953804;29;20074;-75
2023/05/03 07:42:23;;;;;;;11.73;8.00;;;;;;;17.78;93.94;101282.72;4953944;29;20494;-75
2023/05/03 07:44:52;;;;;;;12.95;7.53;;;;;;;17.68;95.02;101267.16;4952527;29;20051;-75
2023/05/03 07:47:20;;;;;;;11.05;7.18;;;;;;;17.82;94.59;101271.84;4952235;28;20510;-76
2023/05/03 07:49:49;;;;;;;13.50;8.25;;;;;;;17.93;95.75;101269.66;4932711;28;20410;-76
2023/05/03 07:52:17;;;;;;;9.25;7.30;;;;;;;18.07;92.57;101278.75;4933776;29;20048;-76
2023/05/03 07:54:45;;;;;;;13.27;7.07;;;;;;;18.06;93.20;101267.97;4947819;29;20055;-77
2023/05/03 07:57:14;;;;;;;10.25;6.97;;;;;;;18.26;90.85;101275.81;4934272;29;20047;-77
2023/05/03 07:59:42;;;;;;;15.38;8.52;;;;;;;18.31;93.72;101272.06;4933956;29;20044;-76
2023/05/03 08:02:10;;;;;;;13.30;8.52;;;;;;;18.32;92.68;101275.69;4934483;29;20067;-76
2023/05/03 08:04:38;;;;;;;15.20;8.52;;;;;;;18.28;94.99;101272.69;4934486;29;20055;-75
2023/05/03 08:07:06;;;;;;;10.93;7.10;;;;;;;18.30;91.09;101280.69;4934392;29;20040;-76
2023/05/03 08:09:35;;;;;;;12.57;7.88;;;;;;;18.27;91.58;101271.91;4934511;29;20044;-75
2023/05/03 08:12:03;;;;;;;12.80;8.40;;;;;;;18.43;93.72;101281.78;4934436;29;20490;-75
2023/05/03 08:14:32;;;;;;;13.23;8.48;;;;;;;18.60;92.71;101283.81;4934363;29;20506;-75
2023/05/03 08:17:00;;;;;;;14.25;8.85;;;;;;;18.78;89.15;101282.75;4934070;29;20066;-75
2023/05/03 08:19:28;;;;;;;13.23;8.75;;;;;;;18.98;85.39;101290.84;4934207;29;20056;-76
2023/05/03 08:21:57;;;;;;;11.77;7.55;;;;;;;19.31;83.18;101294.09;4933222;29;20040;-76
2023/05/03 08:24:25;;;;;;;13.23;7.88;;;;;;;19.38;82.01;101278.91;4937795;29;20054;-74
2023/05/03 08:26:54;;;;;;;13.82;8.15;;;;;;;19.57;82.25;101293.34;4952822;29;20047;-75
2023/05/03 08:29:22;;;;;;;9.77;7.05;;;;;;;19.51;81.96;101289.09;4938198;29;20046;-75
2023/05/03 08:31:51;;;;;;;12.23;7.45;;;;;;;19.80;79.43;101295.16;4938068;29;20054;-75
2023/05/03 08:34:19;;;;;;;12.13;6.80;;;;;;;20.01;77.59;101295.34;4938131;29;20044;-75
2023/05/03 08:36:47;;;;;;;11.70;6.88;;;;;;;20.09;76.05;101294.50;4937870;29;20421;-75
2023/05/03 08:39:15;;;;;;;9.80;6.43;;;;;;;20.20;74.51;101291.41;4936767;29;20052;-75
2023/05/03 08:41:44;;;;;;;9.80;6.55;;;;;;;20.12;74.60;101307.75;4936796;29;20040;-74
2023/05/03 08:44:21;;;;;;;8.35;5.32;;;;;;;19.90;74.98;101302.34;4937854;29;20062;-74
2023/05/03 08:46:49;;;;;;;8.40;5.57;;;;;;;20.01;74.15;101304.47;4936785;29;20051;-74
2023/05/03 08:49:18;;;;;;;8.05;5.93;;;;;;;19.86;73.85;101305.75;4937895;29;20475;-74
2023/05/03 08:51:48;;;;;;;7.78;5.47;;;;;;;19.99;74.10;101300.41;4952420;29;20479;-74
2023/05/03 08:54:19;;;;;;;10.18;5.90;;;;;;;20.25;71.19;101294.03;4937785;29;20044;-84
2023/05/03 08:56:48;;;;;;;7.13;4.75;;;;;;;20.25;68.22;101294.03;4938277;29;20062;-83
2023/05/03 08:59:16;;;;;;;5.30;4.28;;;;;;;20.22;68.20;101295.50;4938686;29;20044;-90
2023/05/03 09:01:44;;;;;;;3.88;3.17;;;;;;;20.14;64.47;101302.69;4936765;29;20044;-89
2023/05/03 09:04:12;;;;;;;2.92;2.63;;;;;;;20.27;64.35;101302.84;4937884;29;20391;-88
2023/05/03 09:06:40;;;;;;;3.58;2.47;;;;;;;20.35;62.52;101304.81;4936596;29;20521;-89
2023/05/03 09:09:09;;;;;;;2.10;1.77;;;;;;;20.19;57.90;101304.47;4920968;29;20043;-90
2023/05/03 09:11:38;;;;;;;2.30;1.13;;;;;;;20.24;59.80;101303.50;4952693;29;20051;-89
2023/05/03 09:14:14;;;;;;;2.50;1.60;;;;;;;20.23;60.49;101296.31;4936075;29;20051;-90
2023/05/03 09:16:44;;;;;;;1.85;1.33;;;;;;;20.19;59.57;101301.69;4920755;29;20062;-93
2023/05/03 09:19:13;;;;;;;1.38;0.93;;;;;;;20.00;56.39;101307.59;4921128;29;20051;-92
2023/05/03 09:21:43;;;;;;;1.00;0.90;;;;;;;20.18;57.44;101304.81;4936590;29;20077;-89
2023/05/03 09:24:20;;;;;;;1.90;0.85;;;;;;;20.51;59.33;101305.09;4905840;29;20075;-89
2023/05/03 09:26:52;;;;;;;3.28;0.90;;;;;;;20.49;58.38;101310.16;4905966;29;20062;-91
2023/05/03 09:29:34;;;;;;;0.50;0.50;;;;;;;20.78;58.06;101302.25;4937045;29;20043;-90
2023/05/03 09:32:04;;;;;;;1.38;1.00;;;;;;;20.84;57.42;101302.88;4935665;29;20044;-88
2023/05/03 09:34:34;;;;;;;1.17;0.77;;;;;;;20.90;54.33;101296.81;4935463;29;20043;-83
2023/05/03 09:37:02;;;;;;;1.15;0.73;;;;;;;20.96;54.92;101293.88;4939930;29;20495;-84
2023/05/03 09:39:30;;;;;;;1.00;0.90;;;;;;;20.99;54.45;101294.00;4936167;29;20047;-84
2023/05/03 09:41:58;;;;;;;1.85;1.75;;;;;;;21.07;55.49;101295.91;4935375;29;20043;-83
2023/05/03 09:44:50;;;;;;;2.55;2.20;;;;;;;21.04;55.55;101293.81;4936440;29;20083;-83
2023/05/03 09:47:18;;;;;;;2.33;2.13;;;;;;;20.57;55.60;101293.81;4935355;29;20055;-86
2023/05/03 09:49:47;;;;;;;2.65;1.90;;;;;;;20.48;57.80;101291.84;4937103;29;20040;-85
2023/05/03 09:52:14;;;;;;;5.28;2.97;;;;;;;20.85;59.85;101285.88;4936981;29;20044;-84
2023/05/03 09:54:44;;;;;;;2.95;2.20;;;;;;;21.13;59.46;101285.44;4936851;29;20059;-83
2023/05/03 09:57:13;;;;;;;3.30;2.85;;;;;;;21.12;55.57;101286.56;4937114;29;20055;-85
2023/05/03 09:59:44;;;;;;;2.90;2.60;;;;;;;21.00;58.29;101287.28;4936883;29;20058;-85
2023/05/03 10:02:12;;;;;;;2.88;2.20;;;;;;;20.99;59.25;101282.06;4952122;29;20047;-84
2023/05/03 10:04:43;;;;;;;3.58;2.30;;;;;;;20.68;58.07;101281.19;4937004;29;20051;-84
2023/05/03 10:07:17;;;;;;;3.30;2.25;;;;;;;21.01;58.62;101279.78;4950725;29;20063;-84
2023/05/03 10:09:48;;;;;;;;;;;;;;;20.86;59.37;101276.38;4936748;29;20047;-83
2023/05/03 10:12:17;;;;;;;2.92;1.98;;;;;;;21.07;56.19;101286.78;4950674;28;19932;-84
2023/05/03 10:14:47;;;;;;;1.70;1.30;;;;;;;20.82;53.27;101278.16;4937177;29;20077;-84
2023/05/03 10:17:30;;;;;;;1.63;1.52;;;;;;;20.89;52.58;101277.69;4950319;29;20044;-84
2023/05/03 10:20:28;;;;;;;2.03;1.73;;;;;;;20.91;58.13;101284.53;4953359;29;20357;-85
2023/05/03 10:23:05;;;;;;;2.28;1.80;;;;;;;21.23;57.31;101283.41;4941767;29;20063;-85
2023/05/03 10:25:35;;;;;;;1.50;1.40;;;;;;;21.40;57.16;101279.72;4935801;29;20043;-85
2023/05/03 10:28:05;;;;;;;2.00;1.55;;;;;;;21.42;54.37;101278.22;4935456;29;20051;-85
2023/05/03 10:30:37;;;;;;;1.20;1.10;;;;;;;;;;4934761;29;20048;-84
2023/05/03 10:33:16;;;;;;;1.45;1.08;;;;;;;21.55;54.34;101275.53;4936042;29;20048;-84
2023/05/03 10:35:52;;;;;;;0.75;0.70;;;;;;;21.57;49.54;101274.03;4935735;29;20048;-85
2023/05/03 10:38:22;;;;;;;0.90;0.70;;;;;;;21.89;51.05;101259.69;4935936;29;20036;-86
2023/05/03 10:40:53;;;;;;;0.88;0.88;;;;;;;21.91;47.56;101274.13;4950701;29;20349;-84
2023/05/03 10:43:30;;;;;;;0.50;0.50;;;;;;;22.16;46.00;101260.28;4935843;29;20058;-85
2023/05/03 10:45:59;;;;;;;0.70;0.60;;;;;;;22.29;48.16;101259.16;4934136;29;20056;-83
2023/05/03 10:48:29;;;;;;;1.00;0.50;;;;;;;22.19;48.27;101265.16;4935666;29;20059;-84
2023/05/03 10:51:29;;;;;;;1.20;1.10;;;;;;;22.41;48.05;101268.72;4936323;29;20400;-84
2023/05/03 10:53:57;;;;;;;1.55;0.70;;;;;;;22.56;49.79;101258.91;4935370;29;20398;-84
2023/05/03 10:56:25;;;;;;;2.95;0.95;;;;;;;22.76;48.53;101259.16;4933384;28;20059;-84
2023/05/03 10:58:57;;;;;;;1.40;0.90;;;;;;;23.01;49.21;101262.78;4935110;29;20050;-84
2023/05/03 11:01:26;;;;;;;1.50;1.17;;;;;;;22.89;48.69;101255.22;4949883;28;20050;-84
2023/05/03 11:04:09;;;;;;;1.52;1.10;;;;;;;22.59;49.25;101260.19;4934966;29;20048;-84
2023/05/03 11:06:39;;;;;;;2.03;1.42;;;;;;;22.38;46.72;101252.69;4933603;28;20066;-84
2023/05/03 11:09:10;;;;;;;3.40;1.33;;;;;;;22.27;50.56;101252.28;4935063;29;20043;-84
2023/05/03 11:11:40;;;;;;;1.63;1.38;;;;;;;22.16;49.33;101246.34;4935298;29;20048;-84
2023/05/03 11:14:10;;;;;;;4.18;1.90;;;;;;;21.98;52.01;101249.31;4934798;29;20051;-84
2023/05/03 11:16:46;;;;;;;2.55;1.80;;;;;;;21.91;53.83;101239.84;4943706;29;20051;-84
2023/05/03 11:19:15;;;;;;;3.85;1.98;;;;;;;22.11;52.05;101241.81;4938443;29;20475;-84
2023/05/03 11:21:44;;;;;;;2.95;1.98;;;;;;;22.54;51.66;101233.34;4935003;29;20058;-83
2023/05/03 11:24:13;;;;;;;1.95;1.60;;;;;;;22.82;52.13;101241.00;4934813;29;20047;-84
2023/05/03 11:26:41;;;;;;;2.22;1.80;;;;;;;23.21;51.14;101240.66;4934879;29;20051;-83
2023/05/03 11:29:09;;;;;;;2.20;1.67;;;;;;;23.42;52.01;101237.72;4945230;29;20055;-83
2023/05/03 11:31:38;;;;;;;2.45;1.77;;;;;;;22.46;50.81;101240.59;4952719;29;20398;-83
2023/05/03 11:34:07;;;;;;;2.03;1.73;;;;;;;22.35;51.19;101236.63;4947899;29;20120;-82